Time;durP1;ratioP1;P1;durP2;ratioP2;P2;SDS_P1;SDS_P2;PMS_P1;PMS_P2;Temp;Humidity;BMP_temperature;BMP_pressure;BME280_temperature;BME280_humidity;BME280_pressure;Samples;Min_cycle;Max_cycle;Signal;HPM_P1;HPM_P2
2022/08/23 00:01:21;;;;;;;10.88;6.20;;;;;;;22.22;57.64;101493.94;6216706;22;20454;-71
2022/08/23 00:03:47;;;;;;;14.43;5.95;;;;;;;22.24;57.86;101498.31;6231046;22;20015;-71
2022/08/23 00:06:13;;;;;;;9.32;5.85;;;;;;;22.18;58.10;101502.91;6204276;22;20016;-72
2022/08/23 00:08:39;;;;;;;12.75;6.35;;;;;;;22.05;58.29;101497.00;6230729;22;20701;-70
2022/08/23 00:11:05;;;;;;;10.68;6.00;;;;;;;21.95;58.69;101498.16;6221609;22;20003;-71
2022/08/23 00:13:32;;;;;;;12.65;6.47;;;;;;;21.95;59.01;101499.91;6232544;22;20020;-71
2022/08/23 00:15:59;;;;;;;10.02;6.53;;;;;;;21.72;59.53;101493.31;6222498;22;20449;-71
2022/08/23 00:18:25;;;;;;;9.48;6.30;;;;;;;21.63;59.96;101485.59;6234321;22;20015;-71
2022/08/23 00:20:50;;;;;;;12.40;6.50;;;;;;;21.69;60.08;101495.19;6224093;22;20474;-70
2022/08/23 00:23:16;;;;;;;11.57;6.07;;;;;;;21.75;60.02;101484.44;6226596;22;20546;-71
2022/08/23 00:25:43;;;;;;;11.20;6.20;;;;;;;21.83;59.20;101496.59;6228265;22;20016;-70
2022/08/23 00:28:09;;;;;;;12.27;6.72;;;;;;;21.66;59.71;101496.13;6222946;22;20099;-70
2022/08/23 00:30:36;;;;;;;12.40;6.68;;;;;;;21.68;59.66;101491.66;6206598;22;20054;-70
2022/08/23 00:33:02;;;;;;;12.93;6.72;;;;;;;21.49;60.25;101495.63;6185833;22;20007;-70
2022/08/23 00:35:28;;;;;;;10.88;6.05;;;;;;;21.52;60.56;101497.34;6229272;22;20007;-71
2022/08/23 00:37:56;;;;;;;16.13;7.05;;;;;;;21.41;60.59;101492.25;6225274;22;20047;-72
2022/08/23 00:40:21;;;;;;;11.48;6.82;;;;;;;21.13;61.81;101488.41;6236552;22;20008;-73
2022/08/23 00:48:52;;;;;;;12.77;7.10;;;;;;;21.15;61.61;101476.91;6227619;22;20019;-70
2022/08/23 00:51:21;;;;;;;13.48;6.65;;;;;;;21.34;61.18;101478.28;6197134;22;20016;-70
2022/08/23 00:53:52;;;;;;;12.15;6.43;;;;;;;21.47;60.79;101480.66;6225557;22;20015;-71
2022/08/23 00:56:20;;;;;;;12.20;6.28;;;;;;;21.34;61.03;101478.28;6224102;22;20020;-71
2022/08/23 00:58:45;;;;;;;12.93;6.85;;;;;;;21.40;60.79;101475.50;6227597;22;20010;-70
2022/08/23 01:01:13;;;;;;;10.50;6.13;;;;;;;21.54;60.48;101477.81;6215120;22;20012;-73
2022/08/23 01:03:41;;;;;;;10.95;6.15;;;;;;;21.61;60.45;101478.56;6222107;22;20007;-71
2022/08/23 01:06:18;;;;;;;11.52;6.10;;;;;;;21.75;60.01;101479.13;6232750;22;20074;-71
2022/08/23 01:08:51;;;;;;;11.52;6.20;;;;;;;21.94;59.43;101480.44;6218350;22;20012;-71
2022/08/23 01:11:26;;;;;;;11.48;5.88;;;;;;;21.94;59.36;101482.22;6202851;22;20031;-70
2022/08/23 01:13:59;;;;;;;11.50;6.20;;;;;;;21.99;59.43;101485.66;6192677;22;20258;-71
2022/08/23 01:17:13;;;;;;;11.50;6.60;;;;;;;21.61;61.59;101487.38;6196971;22;20007;-71
2022/08/23 01:19:46;;;;;;;11.77;6.28;;;;;;;21.69;61.31;101485.44;6226845;22;20035;-71
2022/08/23 01:22:19;;;;;;;16.55;6.55;;;;;;;21.63;62.00;101490.88;6226560;22;20086;-71
2022/08/23 01:24:45;;;;;;;12.63;6.63;;;;;;;21.50;61.58;101481.44;6232414;22;20461;-71
2022/08/23 01:27:12;;;;;;;12.23;6.43;;;;;;;21.42;63.56;101483.38;6224247;22;20019;-71
2022/08/23 01:29:39;;;;;;;10.82;5.75;;;;;;;21.64;63.30;101483.81;6228280;22;20034;-70
2022/08/23 01:32:06;;;;;;;11.65;5.95;;;;;;;21.71;62.23;101480.09;6212984;22;20031;-70
2022/08/23 01:34:31;;;;;;;10.77;5.85;;;;;;;21.83;61.65;101479.81;6203141;22;20023;-72
2022/08/23 01:36:58;;;;;;;10.10;5.13;;;;;;;21.99;61.03;101475.03;6221832;22;20016;-71
2022/08/23 01:39:26;;;;;;;10.30;5.68;;;;;;;22.09;60.45;101481.88;6225117;22;20054;-71
2022/08/23 01:41:52;;;;;;;9.00;5.35;;;;;;;22.20;60.12;101479.84;6203279;22;20008;-70
2022/08/23 01:44:17;;;;;;;8.38;5.47;;;;;;;22.32;59.20;101478.66;6231541;22;20016;-71
2022/08/23 01:46:45;;;;;;;10.73;5.75;;;;;;;22.15;59.60;101477.28;6223675;22;20675;-71
2022/08/23 01:49:11;;;;;;;11.15;5.90;;;;;;;22.02;60.70;101470.53;6216670;22;20010;-70
2022/08/23 01:51:37;;;;;;;9.68;5.95;;;;;;;22.07;60.71;101475.75;6191309;22;20354;-71
2022/08/23 01:54:03;;;;;;;10.63;5.75;;;;;;;22.01;60.56;101463.50;6224703;22;20011;-71
2022/08/23 01:56:31;;;;;;;10.52;6.00;;;;;;;22.02;60.76;101469.66;6228311;22;20007;-71
2022/08/23 01:58:58;;;;;;;8.70;5.68;;;;;;;22.10;59.95;101465.91;6195430;22;20016;-71
2022/08/23 02:01:24;;;;;;;8.88;5.40;;;;;;;22.17;60.02;101463.97;6232481;22;20011;-72
2022/08/23 02:03:50;;;;;;;11.13;5.53;;;;;;;22.18;60.23;101468.38;6206352;22;20038;-70
2022/08/23 02:06:15;;;;;;;7.88;5.32;;;;;;;22.23;60.38;101470.00;6229481;22;20008;-71
2022/08/23 02:11:25;;;;;;;;;;;;;;;22.33;59.90;101472.41;6227114;22;20242;-71
2022/08/23 02:13:53;;;;;;;9.07;5.35;;;;;;;22.33;60.23;101467.09;6228589;22;19911;-73
2022/08/23 02:16:28;;;;;;;11.27;5.28;;;;;;;22.38;60.25;101471.41;6231156;22;20008;-70
2022/08/23 02:18:57;;;;;;;7.40;5.20;;;;;;;22.37;60.25;101472.31;6229620;22;20018;-71
2022/08/23 02:21:24;;;;;;;7.60;5.40;;;;;;;22.35;60.13;101471.47;6226750;22;20071;-71
2022/08/23 02:23:53;;;;;;;9.77;5.28;;;;;;;22.15;61.17;101473.75;6226269;22;20011;-71
2022/08/23 02:26:18;;;;;;;9.18;5.60;;;;;;;22.17;61.87;101471.94;6227975;22;20588;-72
2022/08/23 02:28:46;;;;;;;9.57;5.55;;;;;;;22.10;61.64;101473.88;6198315;22;20011;-71
2022/08/23 02:31:12;;;;;;;11.77;5.65;;;;;;;22.10;61.19;101473.88;6193541;22;20673;-71
2022/08/23 02:33:37;;;;;;;9.60;5.45;;;;;;;22.14;60.89;101472.88;6215452;22;20655;-71
2022/08/23 02:36:05;;;;;;;8.25;5.35;;;;;;;22.25;61.01;101477.94;6230702;22;20036;-71
2022/08/23 02:38:31;;;;;;;10.05;5.65;;;;;;;22.45;59.68;101474.75;6192816;22;20012;-70
2022/08/23 02:40:57;;;;;;;8.27;5.00;;;;;;;22.41;59.99;101468.66;6197005;22;20011;-71
2022/08/23 02:43:22;;;;;;;11.68;5.20;;;;;;;22.44;58.84;101473.91;6224088;22;20018;-71
2022/08/23 02:45:50;;;;;;;9.10;5.18;;;;;;;22.42;59.59;101472.19;6198565;22;20019;-70
2022/08/23 02:48:15;;;;;;;11.85;5.50;;;;;;;22.44;59.24;101463.28;6193077;22;20008;-70
2022/08/23 02:50:41;;;;;;;8.02;4.90;;;;;;;22.54;58.94;101472.75;6217153;22;20069;-69
2022/08/23 02:53:06;;;;;;;9.07;5.10;;;;;;;22.67;57.87;101470.63;6224194;22;20086;-72
2022/08/23 02:55:32;;;;;;;10.80;5.28;;;;;;;22.70;57.91;101477.63;6226807;22;20024;-72
2022/08/23 02:57:58;;;;;;;12.30;5.50;;;;;;;22.74;58.04;101469.59;6230326;22;20018;-72
2022/08/23 03:00:23;;;;;;;9.45;5.20;;;;;;;22.67;58.20;101475.94;6233771;22;20038;-72
2022/08/23 03:02:49;;;;;;;9.68;5.05;;;;;;;22.69;57.59;101470.59;6223707;22;20514;-72
2022/08/23 03:05:15;;;;;;;11.23;5.63;;;;;;;22.70;57.14;101470.53;6223669;22;20462;-72
2022/08/23 03:07:41;;;;;;;11.13;5.53;;;;;;;22.65;57.90;101475.09;6226168;22;20727;-72
2022/08/23 03:10:08;;;;;;;8.35;5.40;;;;;;;22.71;56.86;101474.94;6227087;22;20030;-71
2022/08/23 03:12:34;;;;;;;10.93;5.85;;;;;;;22.64;57.01;101476.00;6230375;22;20011;-72
2022/08/23 03:14:59;;;;;;;10.93;5.80;;;;;;;22.62;57.29;101477.88;6216461;22;20422;-72
2022/08/23 03:17:25;;;;;;;11.85;6.55;;;;;;;22.51;57.46;101477.25;6228317;22;20073;-71
2022/08/23 03:19:53;;;;;;;9.02;5.40;;;;;;;22.61;56.81;101478.78;6224931;22;20050;-71
2022/08/23 03:22:19;;;;;;;8.93;5.10;;;;;;;22.67;57.14;101479.47;6231156;22;20008;-72
2022/08/23 03:24:45;;;;;;;9.77;5.07;;;;;;;22.76;56.05;101477.50;6231251;22;20027;-71
2022/08/23 03:27:11;;;;;;;11.00;5.60;;;;;;;22.90;54.84;101478.88;6221053;22;20069;-70
2022/08/23 03:29:37;;;;;;;12.00;5.55;;;;;;;22.88;55.07;101482.47;6228846;22;20038;-71
2022/08/23 03:32:03;;;;;;;11.02;5.57;;;;;;;22.83;56.07;101479.94;6198589;22;20063;-71
2022/08/23 03:34:30;;;;;;;11.60;5.78;;;;;;;22.77;56.56;101480.13;6203874;22;20004;-71
2022/08/23 03:36:56;;;;;;;13.00;6.70;;;;;;;22.64;57.09;101478.66;6224631;22;20210;-71
2022/08/23 03:39:22;;;;;;;11.60;6.68;;;;;;;22.56;58.23;101480.69;6222777;22;20020;-71
2022/08/23 03:41:47;;;;;;;12.88;6.72;;;;;;;22.44;58.87;101481.00;6227600;22;20484;-72
2022/08/23 03:44:13;;;;;;;13.20;7.07;;;;;;;22.47;58.43;101478.25;6195254;22;20022;-72
2022/08/23 03:46:45;;;;;;;11.45;6.68;;;;;;;22.56;58.02;101484.22;6203231;22;20008;-70
2022/08/23 03:49:11;;;;;;;13.57;7.25;;;;;;;22.49;58.98;101490.59;6195329;22;20035;-70
2022/08/23 03:51:37;;;;;;;14.07;7.15;;;;;;;22.26;58.90;101493.81;6222926;22;20091;-71
2022/08/23 03:54:03;;;;;;;13.25;7.13;;;;;;;22.28;59.18;101499.09;6231694;22;20889;-71
2022/08/23 03:56:32;;;;;;;11.20;6.78;;;;;;;22.30;59.35;101499.06;6230663;22;20023;-71
2022/08/23 03:59:00;;;;;;;12.80;6.55;;;;;;;22.28;59.55;101496.44;6220654;22;20038;-70
2022/08/23 04:01:26;;;;;;;17.48;6.85;;;;;;;22.18;60.17;101495.81;6225521;22;20057;-71
2022/08/23 04:03:51;;;;;;;12.27;7.10;;;;;;;22.08;60.11;101493.44;6219795;22;20017;-72
2022/08/23 04:06:17;;;;;;;11.35;6.43;;;;;;;22.03;59.93;101498.81;6239885;22;20016;-72
2022/08/23 04:08:44;;;;;;;14.70;6.90;;;;;;;21.96;60.22;101491.91;6223648;22;20039;-72
2022/08/23 04:11:11;;;;;;;13.23;6.45;;;;;;;21.86;60.49;101499.19;6219441;22;20018;-72
2022/08/23 04:13:38;;;;;;;12.23;6.97;;;;;;;21.76;60.65;101495.03;6198552;22;20065;-72
2022/08/23 04:16:04;;;;;;;14.75;6.78;;;;;;;21.71;61.07;101496.03;6227757;22;20011;-71
2022/08/23 04:18:31;;;;;;;12.65;6.60;;;;;;;21.68;61.26;101499.63;6204190;22;20627;-70
2022/08/23 04:21:00;;;;;;;11.98;6.75;;;;;;;21.57;61.12;101504.28;6221763;22;20576;-71
2022/08/23 04:23:26;;;;;;;10.38;6.40;;;;;;;21.52;61.41;101508.84;6204896;22;20015;-71
2022/08/23 04:25:56;;;;;;;12.02;6.57;;;;;;;21.53;61.71;101507.91;6225458;22;20046;-73
2022/08/23 04:28:22;;;;;;;11.73;6.63;;;;;;;21.41;61.86;101503.72;6224713;22;20056;-71
2022/08/23 04:30:59;;;;;;;14.88;6.80;;;;;;;21.26;62.37;101495.25;6201927;22;20157;-72
2022/08/23 04:33:26;;;;;;;13.38;6.47;;;;;;;21.21;62.55;101503.31;6226667;22;20114;-71
2022/08/23 04:35:51;;;;;;;10.15;6.20;;;;;;;21.06;63.20;101503.56;6234759;22;20003;-70
2022/08/23 04:38:17;;;;;;;13.88;6.55;;;;;;;21.05;63.52;101502.69;6228512;22;20019;-71
2022/08/23 04:43:29;;;;;;;10.18;6.35;;;;;;;21.02;63.87;101510.72;6225239;22;20022;-70
2022/08/23 04:45:55;;;;;;;9.40;6.00;;;;;;;21.05;63.70;101505.34;6222366;22;20012;-71
2022/08/23 04:48:22;;;;;;;11.27;6.13;;;;;;;21.02;63.42;101505.41;6231225;22;20090;-70
2022/08/23 04:50:47;;;;;;;11.30;6.35;;;;;;;20.94;63.95;101506.44;6220031;22;20082;-70
2022/08/23 04:53:12;;;;;;;11.77;6.57;;;;;;;20.88;64.21;101501.25;6221979;22;20596;-71
2022/08/23 04:55:38;;;;;;;11.00;5.80;;;;;;;21.03;64.19;101506.28;6198170;23;20707;-71
2022/08/23 04:58:04;;;;;;;10.57;5.57;;;;;;;21.23;63.40;101517.38;6187930;23;20004;-71
2022/08/23 05:00:30;;;;;;;10.15;5.32;;;;;;;21.33;63.29;101518.09;6199505;23;20008;-71
2022/08/23 05:02:56;;;;;;;13.90;6.10;;;;;;;21.42;62.87;101521.41;6184487;23;20042;-70
2022/08/23 05:05:21;;;;;;;8.07;5.47;;;;;;;21.49;62.82;101523.94;6196501;23;20015;-70
2022/08/23 05:07:47;;;;;;;9.68;6.07;;;;;;;21.36;62.97;101526.84;6194718;23;20020;-73
2022/08/23 05:10:17;;;;;;;11.23;6.32;;;;;;;21.18;64.02;101527.22;6197716;23;20004;-70
2022/08/23 05:12:43;;;;;;;8.05;5.80;;;;;;;21.27;64.14;101534.13;6194520;23;20004;-72
2022/08/23 05:15:09;;;;;;;8.95;6.00;;;;;;;21.31;63.99;101530.50;6184052;22;20008;-70
2022/08/23 05:17:35;;;;;;;9.05;5.40;;;;;;;21.34;64.03;101527.78;6206716;23;20739;-70
2022/08/23 05:20:02;;;;;;;10.40;5.70;;;;;;;21.38;63.82;101521.50;6185735;22;20012;-68
2022/08/23 05:22:32;;;;;;;9.40;5.53;;;;;;;21.38;63.46;101532.13;6197597;23;20040;-71
2022/08/23 05:25:00;;;;;;;9.93;5.68;;;;;;;21.35;63.28;101537.47;6161916;23;20126;-70
2022/08/23 05:27:27;;;;;;;10.43;5.40;;;;;;;21.44;63.27;101537.28;6194856;23;20015;-72
2022/08/23 05:29:53;;;;;;;9.23;5.43;;;;;;;21.48;63.01;101540.75;6192654;23;20032;-72
2022/08/23 05:32:19;;;;;;;9.98;6.18;;;;;;;21.43;62.92;101530.25;6206630;23;20047;-72
2022/08/23 05:34:45;;;;;;;9.35;5.75;;;;;;;21.52;63.19;101534.50;6195927;23;20068;-73
2022/08/23 05:37:11;;;;;;;10.02;5.47;;;;;;;21.61;63.05;101537.81;6189233;23;20008;-71
2022/08/23 05:39:36;;;;;;;10.77;6.15;;;;;;;21.59;63.43;101539.59;6200499;23;20067;-70
2022/08/23 05:42:02;;;;;;;9.35;5.63;;;;;;;21.64;63.64;101545.72;6191991;22;20339;-71
2022/08/23 05:44:27;;;;;;;10.05;6.10;;;;;;;21.72;63.36;101542.88;6189592;23;20119;-71
2022/08/23 05:46:53;;;;;;;15.57;6.38;;;;;;;21.83;63.13;101551.50;6193066;23;20011;-70
2022/08/23 05:49:18;;;;;;;12.25;5.72;;;;;;;21.95;62.98;101553.00;6188502;23;20427;-71
2022/08/23 05:51:44;;;;;;;8.68;5.63;;;;;;;22.00;62.31;101553.78;6192047;23;20011;-71
2022/08/23 05:54:09;;;;;;;9.82;6.15;;;;;;;22.06;62.03;101558.97;6204768;22;20398;-71
2022/08/23 05:56:43;;;;;;;10.68;5.95;;;;;;;22.22;61.30;101558.56;6207721;22;20378;-72
2022/08/23 05:59:12;;;;;;;11.57;6.00;;;;;;;22.33;61.12;101557.41;6217818;22;20102;-71
2022/08/23 06:01:38;;;;;;;8.73;5.97;;;;;;;22.39;61.28;101558.16;6225430;22;20438;-70
2022/08/23 06:04:06;;;;;;;10.35;6.30;;;;;;;22.55;60.51;101561.31;6223590;22;20292;-72
2022/08/23 06:06:33;;;;;;;9.93;6.30;;;;;;;22.61;60.22;101558.50;6226868;22;20106;-70
2022/08/23 06:08:59;;;;;;;17.63;7.00;;;;;;;22.67;59.28;101561.88;6187526;22;20018;-70
2022/08/23 06:11:27;;;;;;;15.38;7.10;;;;;;;22.77;59.17;101554.56;6225330;22;20011;-71
2022/08/23 06:13:58;;;;;;;11.05;6.90;;;;;;;22.93;59.53;101560.38;6224845;22;20439;-72
2022/08/23 06:16:27;;;;;;;11.23;6.53;;;;;;;23.09;59.23;101553.69;6230300;22;20957;-70
2022/08/23 06:18:56;;;;;;;12.68;7.95;;;;;;;23.27;57.77;101557.63;6231486;22;20011;-70
2022/08/23 06:21:23;;;;;;;14.00;7.70;;;;;;;23.44;57.94;101556.22;6226880;22;20081;-71
2022/08/23 06:23:50;;;;;;;14.48;8.20;;;;;;;23.62;58.04;101552.19;6226805;22;20011;-70
2022/08/23 06:26:21;;;;;;;16.13;7.72;;;;;;;24.04;56.80;101547.34;6225111;22;20011;-71
2022/08/23 06:28:55;;;;;;;15.80;8.90;;;;;;;24.51;54.76;101548.50;6234434;22;20495;-72
2022/08/23 06:31:44;;;;;;;16.08;8.23;;;;;;;25.31;52.16;101550.09;6198601;22;20024;-71
2022/08/23 06:34:21;;;;;;;12.80;6.80;;;;;;;27.27;48.62;101546.56;6221909;22;20290;-71
2022/08/23 06:36:51;;;;;;;15.25;7.47;;;;;;;28.72;44.34;101548.50;6228510;22;20937;-71
2022/08/23 06:39:18;;;;;;;16.17;7.60;;;;;;;30.10;41.36;101541.88;6180587;22;20011;-70
2022/08/23 06:41:47;;;;;;;20.90;6.43;;;;;;;31.88;37.89;101540.88;6205913;22;20366;-72
2022/08/23 06:44:13;;;;;;;10.95;5.93;;;;;;;32.43;36.95;101546.19;6226605;22;20388;-74
2022/08/23 06:46:38;;;;;;;12.30;5.72;;;;;;;31.73;38.83;101548.09;6214426;22;20065;-70
2022/08/23 06:49:07;;;;;;;11.23;5.28;;;;;;;31.71;38.19;101544.66;6211614;22;20018;-70
2022/08/23 06:51:42;;;;;;;12.30;5.50;;;;;;;30.97;39.83;101548.34;6227337;22;20026;-70
2022/08/23 07:40:58;;;;;;;8.73;3.03;;;;;;;34.38;33.60;101565.59;6215233;22;20547;-71
2022/08/23 07:43:24;;;;;;;8.38;3.42;;;;;;;34.67;32.82;101575.06;6223354;22;20439;-72
2022/08/23 07:45:50;;;;;;;11.93;3.38;;;;;;;34.64;34.82;101571.75;6235806;22;20012;-71
2022/08/23 07:48:15;;;;;;;6.43;3.40;;;;;;;34.43;33.81;101566.09;6191882;22;20426;-71
2022/08/23 07:50:40;;;;;;;6.97;3.22;;;;;;;34.50;33.50;101575.50;6223466;22;20008;-71
2022/08/23 07:53:07;;;;;;;6.72;3.30;;;;;;;35.63;31.75;101576.50;6182350;22;20517;-71
2022/08/23 07:55:33;;;;;;;7.03;3.17;;;;;;;36.09;30.79;101568.22;6227643;22;20082;-71
2022/08/23 07:57:59;;;;;;;5.43;2.72;;;;;;;37.57;28.14;101569.94;6198740;22;20117;-70
2022/08/23 08:00:25;;;;;;;7.15;2.70;;;;;;;36.91;29.01;101568.53;6226096;22;20018;-70
2022/08/23 08:02:50;;;;;;;7.07;2.50;;;;;;;34.58;32.70;101570.38;6200023;22;20034;-72
2022/08/23 08:05:16;;;;;;;6.18;2.58;;;;;;;35.10;32.32;101569.91;6216619;22;20012;-72
2022/08/23 08:07:42;;;;;;;5.30;2.45;;;;;;;34.42;32.89;101578.78;6229925;22;20497;-70
2022/08/23 08:10:08;;;;;;;4.95;2.20;;;;;;;35.77;31.10;101581.72;6227578;22;20012;-71
2022/08/23 08:12:43;;;;;;;5.82;2.42;;;;;;;34.86;33.15;101594.38;6224451;22;20518;-71
2022/08/23 08:15:09;;;;;;;6.88;2.38;;;;;;;34.80;32.69;101600.28;6219234;22;20058;-73
2022/08/23 08:17:36;;;;;;;6.65;2.65;;;;;;;34.06;33.45;101604.00;6220223;22;20011;-70
2022/08/23 08:20:03;;;;;;;6.68;2.58;;;;;;;33.21;35.34;101595.75;6198718;22;20561;-70
2022/08/23 08:22:28;;;;;;;8.25;3.00;;;;;;;32.48;37.54;101603.44;6230171;22;20003;-70
2022/08/23 08:24:55;;;;;;;7.95;3.03;;;;;;;31.92;39.13;101607.13;6215219;22;20182;-71
2022/08/23 08:27:20;;;;;;;6.45;3.15;;;;;;;31.97;38.29;101613.06;6204878;22;20012;-71
2022/08/23 08:29:45;;;;;;;8.80;3.40;;;;;;;31.87;37.84;101607.41;6230216;22;20018;-70
2022/08/23 08:32:11;;;;;;;6.40;3.00;;;;;;;31.46;40.29;101614.53;6198370;22;20003;-70
2022/08/23 08:34:37;;;;;;;9.80;2.90;;;;;;;31.15;40.13;101615.56;6230882;22;20007;-70
2022/08/23 08:37:03;;;;;;;5.72;2.40;;;;;;;31.09;39.48;101626.69;6220307;22;20491;-70
2022/08/23 08:39:31;;;;;;;8.18;2.42;;;;;;;31.07;40.52;101620.53;6191800;22;20119;-70
2022/08/23 08:42:11;;;;;;;5.00;2.58;;;;;;;30.86;40.15;101620.81;6225314;22;20012;-71
2022/08/23 08:44:37;;;;;;;6.95;2.50;;;;;;;31.19;39.81;101625.16;6222686;22;20046;-71
2022/08/23 08:47:19;;;;;;;7.20;3.10;;;;;;;31.22;40.27;101622.31;6177481;22;20448;-71
2022/08/23 08:50:01;;;;;;;13.45;3.15;;;;;;;31.23;39.49;101618.66;6224670;22;20004;-71
2022/08/23 08:52:36;;;;;;;7.40;2.90;;;;;;;30.97;42.09;101622.88;6222281;22;20083;-71
2022/08/23 08:55:15;;;;;;;7.82;3.15;;;;;;;31.13;40.78;101609.38;6211534;22;20034;-70
2022/08/23 08:57:44;;;;;;;7.45;3.05;;;;;;;30.84;42.18;101627.25;6226776;22;20289;-71
2022/08/23 09:00:14;;;;;;;8.38;3.03;;;;;;;31.11;40.00;101617.53;6224887;22;20012;-70
2022/08/23 09:02:41;;;;;;;7.20;2.80;;;;;;;31.00;42.62;101630.75;6197900;22;20012;-71
2022/08/23 09:05:16;;;;;;;6.13;2.35;;;;;;;31.30;39.93;101622.69;6207422;22;20062;-71
2022/08/23 09:07:55;;;;;;;5.72;2.40;;;;;;;31.67;38.93;101624.84;6226219;22;20015;-70
2022/08/23 09:10:24;;;;;;;4.93;2.40;;;;;;;31.70;38.92;101627.38;6234060;22;20086;-71
2022/08/23 09:13:16;;;;;;;6.00;2.17;;;;;;;31.62;39.64;101629.69;6214164;22;20617;-71
2022/08/23 09:16:02;;;;;;;4.28;2.17;;;;;;;31.49;40.22;101633.19;6191280;22;20016;-70
2022/08/23 09:18:33;;;;;;;8.48;2.65;;;;;;;31.13;39.94;101639.88;6230480;22;20016;-72
2022/08/23 09:21:00;;;;;;;5.90;2.60;;;;;;;31.54;38.23;101631.06;6189853;22;20040;-71
2022/08/23 09:23:35;;;;;;;5.50;2.40;;;;;;;31.15;39.16;101627.19;6221653;22;20107;-70
2022/08/23 09:26:14;;;;;;;6.53;2.33;;;;;;;30.82;40.02;101629.16;6228487;22;20018;-70
2022/08/23 09:28:40;;;;;;;6.75;2.40;;;;;;;30.91;40.75;101636.72;6201459;22;20415;-71
2022/08/23 09:31:33;;;;;;;6.53;2.38;;;;;;;30.72;40.30;101636.06;6205603;22;20016;-70
2022/08/23 09:33:58;;;;;;;5.32;2.40;;;;;;;31.08;40.62;101635.72;6205658;22;20664;-71
2022/08/23 09:36:25;;;;;;;5.47;2.70;;;;;;;30.80;40.42;101637.31;6222528;22;20007;-71
2022/08/23 09:39:00;;;;;;;4.75;2.45;;;;;;;30.84;40.83;101640.72;6229139;22;20003;-70
2022/08/23 09:41:38;;;;;;;9.88;2.40;;;;;;;30.84;40.23;101638.03;6161385;23;20024;-71
2022/08/23 09:44:08;;;;;;;6.10;2.42;;;;;;;31.52;38.10;101631.19;6196556;23;20004;-70
2022/08/23 09:46:43;;;;;;;4.97;2.30;;;;;;;31.64;38.64;101624.19;6199198;23;20424;-71
2022/08/23 09:49:23;;;;;;;8.07;2.40;;;;;;;31.59;37.72;101619.09;6185576;23;20096;-70
2022/08/23 09:51:50;;;;;;;5.15;2.47;;;;;;;31.81;38.06;101621.28;6196734;23;20116;-70
2022/08/23 09:54:25;;;;;;;6.82;2.20;;;;;;;32.07;36.70;101620.50;6173398;22;20046;-70
2022/08/23 09:57:08;;;;;;;5.65;2.20;;;;;;;31.83;39.64;101627.47;6194009;23;20015;-70
2022/08/23 09:59:37;;;;;;;6.10;2.60;;;;;;;31.14;40.54;101632.66;6197796;23;20077;-69
2022/08/23 10:02:03;;;;;;;7.22;2.67;;;;;;;30.90;39.92;101621.50;6183007;23;20884;-70
2022/08/23 10:04:40;;;;;;;5.78;2.30;;;;;;;31.67;37.91;101622.16;6197644;23;20340;-70
2022/08/23 10:07:47;;;;;;;6.65;2.53;;;;;;;31.83;36.51;101612.16;6184935;23;20459;-71
2022/08/23 10:10:50;;;;;;;6.28;2.10;;;;;;;31.72;36.80;101614.63;6170440;23;20016;-71
2022/08/23 10:13:16;;;;;;;7.18;2.72;;;;;;;31.06;38.72;101611.56;6170038;23;20496;-68
2022/08/23 10:16:17;;;;;;;7.43;2.42;;;;;;;30.95;40.51;101614.03;6199369;23;20004;-70
2022/08/23 10:18:54;;;;;;;6.20;2.30;;;;;;;31.34;38.23;101606.25;6164863;23;20016;-71
2022/08/23 10:21:32;;;;;;;6.15;2.10;;;;;;;31.94;36.82;101599.81;6188544;23;20054;-69
2022/08/23 10:24:14;;;;;;;3.58;1.70;;;;;;;31.87;36.41;101606.56;6167441;23;20015;-71
2022/08/23 10:29:35;;;;;;;8.27;2.05;;;;;;;31.41;37.74;101604.03;6191623;23;20016;-69
2022/08/23 10:30:09;;;;;;;5.88;1.90;;;;;;;31.93;37.00;101603.47;6193515;23;20012;-70
2022/08/23 10:33:09;;;;;;;8.43;2.30;;;;;;;32.29;36.80;101606.50;6197146;23;20395;-70
2022/08/23 10:36:11;;;;;;;4.15;1.90;;;;;;;32.67;34.15;101606.66;6201543;23;20016;-70
2022/08/23 10:38:46;;;;;;;5.25;2.00;;;;;;;32.77;33.63;101604.19;6191160;23;20016;-71
2022/08/23 10:41:30;;;;;;;6.13;1.90;;;;;;;32.52;33.94;101604.94;6217085;22;20019;-70
2022/08/23 10:44:34;;;;;;;6.53;2.03;;;;;;;31.86;34.31;101604.81;6223760;22;20021;-69
2022/08/23 10:47:31;;;;;;;6.28;2.00;;;;;;;31.77;36.52;101607.16;6199044;22;20083;-73
2022/08/23 10:50:02;;;;;;;3.70;2.03;;;;;;;31.79;35.65;101599.81;6212559;22;20018;-70
2022/08/23 10:52:44;;;;;;;7.82;1.90;;;;;;;32.32;36.61;101608.13;6227248;22;20007;-71
2022/08/23 10:55:33;;;;;;;5.35;1.98;;;;;;;32.30;35.33;101602.81;6187146;22;20069;-70
2022/08/23 10:58:06;;;;;;;4.90;1.80;;;;;;;31.87;36.92;101602.03;6231957;22;20043;-70
2022/08/23 11:00:38;;;;;;;4.63;2.13;;;;;;;32.45;34.90;101604.50;6204610;22;20083;-70
2022/08/23 11:03:26;;;;;;;6.03;2.20;;;;;;;31.74;36.41;101598.38;6212672;22;20026;-72
2022/08/23 11:06:32;;;;;;;5.25;1.70;;;;;;;32.80;34.54;101598.59;6224639;22;20402;-70
2022/08/23 11:09:06;;;;;;;5.25;2.00;;;;;;;33.07;34.00;101603.94;6213987;22;20111;-72
2022/08/23 11:11:49;;;;;;;4.68;1.80;;;;;;;33.35;33.62;101603.78;6185012;22;20004;-70
2022/08/23 11:14:32;;;;;;;5.55;1.73;;;;;;;32.67;36.60;101605.81;6219862;22;20115;-72
2022/08/23 11:17:01;;;;;;;3.13;1.50;;;;;;;33.00;33.90;101606.19;6193545;22;20016;-71
2022/08/23 11:19:47;;;;;;;3.25;1.58;;;;;;;32.42;35.58;101602.00;6224939;22;20489;-71
2022/08/23 11:22:24;;;;;;;4.20;1.60;;;;;;;32.76;33.99;101611.44;6215381;22;20062;-71
2022/08/23 11:25:18;;;;;;;5.30;1.80;;;;;;;32.78;33.94;101612.19;6220290;22;20010;-72
2022/08/23 11:27:44;;;;;;;4.97;1.70;;;;;;;32.95;33.49;101611.03;6203764;22;20487;-73
2022/08/23 11:30:32;;;;;;;4.55;1.85;;;;;;;32.39;36.23;101610.31;6200715;22;20086;-72
2022/08/23 11:33:33;;;;;;;3.85;1.90;;;;;;;32.17;36.01;101608.16;6213799;22;20020;-71
2022/08/23 11:36:07;;;;;;;4.65;1.80;;;;;;;32.43;35.02;101610.97;6225515;22;20007;-70
2022/08/23 11:38:42;;;;;;;7.18;1.75;;;;;;;32.68;35.20;101616.50;6214918;22;20541;-72
2022/08/23 11:41:18;;;;;;;3.80;1.70;;;;;;;32.95;34.90;101616.44;6218299;22;20016;-71
2022/08/23 11:43:48;;;;;;;6.90;2.00;;;;;;;33.74;33.01;101617.19;6205033;22;20102;-71
2022/08/23 11:46:25;;;;;;;3.90;1.70;;;;;;;33.94;33.41;101620.28;6201932;22;20018;-70
2022/08/23 11:49:26;;;;;;;5.03;2.00;;;;;;;33.91;32.91;101610.56;6230603;22;20015;-71
2022/08/23 11:52:26;;;;;;;5.20;1.70;;;;;;;33.84;33.36;101617.41;6228301;22;20012;-68
2022/08/23 11:54:52;;;;;;;3.88;1.80;;;;;;;33.72;33.38;101618.28;6219500;22;20194;-70
2022/08/23 11:57:48;;;;;;;3.65;2.00;;;;;;;33.73;34.16;101618.16;6191843;22;20527;-69
2022/08/23 12:00:26;;;;;;;4.40;2.00;;;;;;;33.64;33.71;101626.91;6223953;22;20011;-70
2022/08/23 12:03:20;;;;;;;3.47;1.88;;;;;;;33.49;33.11;101619.88;6234531;22;20029;-71
2022/08/23 12:06:07;;;;;;;4.60;2.00;;;;;;;33.71;32.80;101624.66;6203812;22;20019;-72
2022/08/23 12:09:00;;;;;;;4.65;2.00;;;;;;;33.85;31.99;101623.66;6224699;22;20028;-71
2022/08/23 12:11:48;;;;;;;4.45;2.13;;;;;;;34.11;32.32;101628.88;6226647;22;20458;-72
2022/08/23 12:14:40;;;;;;;7.38;2.13;;;;;;;33.95;33.23;101619.31;6194759;22;20506;-70
2022/08/23 12:17:11;;;;;;;6.47;1.90;;;;;;;33.79;33.28;101628.53;6198722;22;20091;-71
2022/08/23 12:19:47;;;;;;;8.35;2.03;;;;;;;33.65;33.77;101630.47;6227655;22;20004;-72
2022/08/23 12:22:20;;;;;;;5.20;2.10;;;;;;;32.83;36.18;101626.25;6228977;22;20004;-71
2022/08/23 12:24:51;;;;;;;4.10;1.85;;;;;;;33.22;34.25;101630.81;6212050;22;20015;-70
2022/08/23 12:27:58;;;;;;;5.15;2.47;;;;;;;33.11;33.21;101625.25;6190531;22;20632;-70
2022/08/23 12:30:54;;;;;;;6.35;2.60;;;;;;;32.68;37.07;101635.41;6210876;22;20122;-71
2022/08/23 12:33:40;;;;;;;8.20;3.15;;;;;;;31.33;41.03;101644.94;6148814;22;20334;-72
2022/08/23 12:36:38;;;;;;;8.65;2.88;;;;;;;31.06;41.50;101635.81;6228098;22;20096;-70
2022/08/23 12:39:07;;;;;;;6.45;2.80;;;;;;;31.12;41.77;101643.53;6213561;22;20003;-70
2022/08/23 12:41:52;;;;;;;8.40;3.10;;;;;;;30.88;41.54;101634.19;6224891;22;20119;-71